sensor_id;sensor_type;location;lat;lon;timestamp;P1;durP1;ratioP1;P2;durP2;ratioP2
48919;SDS011;34730;50.894;6.052;2022-07-22T00:00:26;13.88;;;6.38;;
48919;SDS011;34730;50.894;6.052;2022-07-22T00:00:57;13.93;;;7.07;;
48919;SDS011;34730;50.894;6.052;2022-07-22T00:01:28;13.45;;;6.25;;
48919;SDS011;34730;50.894;6.052;2022-07-22T00:01:59;13.77;;;6.60;;
48919;SDS011;34730;50.894;6.052;2022-07-22T00:02:30;10.23;;;5.90;;
48919;SDS011;34730;50.894;6.052;2022-07-22T00:03:03;10.63;;;6.45;;
48919;SDS011;34730;50.894;6.052;2022-07-22T00:03:34;14.73;;;6.53;;
48919;SDS011;34730;50.894;6.052;2022-07-22T00:04:05;12.10;;;6.50;;
48919;SDS011;34730;50.894;6.052;2022-07-22T00:04:36;13.38;;;6.22;;
48919;SDS011;34730;50.894;6.052;2022-07-22T00:05:07;11.40;;;6.15;;
48919;SDS011;34730;50.894;6.052;2022-07-22T00:05:40;11.63;;;5.88;;
48919;SDS011;34730;50.894;6.052;2022-07-22T00:06:11;11.52;;;5.90;;
48919;SDS011;34730;50.894;6.052;2022-07-22T00:06:42;10.75;;;5.95;;
48919;SDS011;34730;50.894;6.052;2022-07-22T00:07:16;11.68;;;6.70;;
48919;SDS011;34730;50.894;6.052;2022-07-22T00:07:49;10.60;;;5.90;;
48919;SDS011;34730;50.894;6.052;2022-07-22T00:08:20;8.85;;;5.70;;
48919;SDS011;34730;50.894;6.052;2022-07-22T00:08:51;10.35;;;6.30;;
48919;SDS011;34730;50.894;6.052;2022-07-22T00:09:22;15.73;;;6.28;;
48919;SDS011;34730;50.894;6.052;2022-07-22T00:09:55;11.77;;;6.70;;
48919;SDS011;34730;50.894;6.052;2022-07-22T00:10:25;12.85;;;6.30;;
48919;SDS011;34730;50.894;6.052;2022-07-22T00:10:57;12.90;;;6.30;;
48919;SDS011;34730;50.894;6.052;2022-07-22T00:11:28;13.05;;;5.85;;
48919;SDS011;34730;50.894;6.052;2022-07-22T00:11:59;13.88;;;6.18;;
48919;SDS011;34730;50.894;6.052;2022-07-22T00:12:30;12.23;;;6.45;;
48919;SDS011;34730;50.894;6.052;2022-07-22T00:13:04;11.20;;;6.15;;
48919;SDS011;34730;50.894;6.052;2022-07-22T00:13:35;14.23;;;6.10;;
48919;SDS011;34730;50.894;6.052;2022-07-22T00:14:08;13.32;;;6.28;;
48919;SDS011;34730;50.894;6.052;2022-07-22T00:14:42;11.23;;;5.60;;
48919;SDS011;34730;50.894;6.052;2022-07-22T00:15:13;10.63;;;6.07;;
48919;SDS011;34730;50.894;6.052;2022-07-22T00:15:44;14.55;;;6.32;;
48919;SDS011;34730;50.894;6.052;2022-07-22T00:16:15;11.48;;;6.47;;
48919;SDS011;34730;50.894;6.052;2022-07-22T00:16:46;11.80;;;5.63;;
48919;SDS011;34730;50.894;6.052;2022-07-22T00:17:16;12.30;;;6.30;;
48919;SDS011;34730;50.894;6.052;2022-07-22T00:17:47;13.02;;;6.10;;
48919;SDS011;34730;50.894;6.052;2022-07-22T00:18:18;13.32;;;6.03;;
48919;SDS011;34730;50.894;6.052;2022-07-22T00:18:49;12.20;;;6.28;;
48919;SDS011;34730;50.894;6.052;2022-07-22T00:19:20;14.10;;;5.82;;
48919;SDS011;34730;50.894;6.052;2022-07-22T00:19:50;10.38;;;5.78;;
48919;SDS011;34730;50.894;6.052;2022-07-22T00:20:21;15.00;;;6.60;;
48919;SDS011;34730;50.894;6.052;2022-07-22T00:20:52;13.38;;;6.28;;
48919;SDS011;34730;50.894;6.052;2022-07-22T00:21:23;12.77;;;5.95;;
48919;SDS011;34730;50.894;6.052;2022-07-22T00:21:54;13.68;;;6.68;;
48919;SDS011;34730;50.894;6.052;2022-07-22T00:22:27;12.77;;;6.18;;
48919;SDS011;34730;50.894;6.052;2022-07-22T00:22:57;15.73;;;6.50;;
48919;SDS011;34730;50.894;6.052;2022-07-22T00:23:31;14.07;;;6.30;;
48919;SDS011;34730;50.894;6.052;2022-07-22T00:24:02;11.65;;;5.63;;
48919;SDS011;34730;50.894;6.052;2022-07-22T00:24:33;13.38;;;6.35;;
48919;SDS011;34730;50.894;6.052;2022-07-22T00:25:04;13.77;;;6.35;;
48919;SDS011;34730;50.894;6.052;2022-07-22T00:25:36;11.02;;;6.30;;
48919;SDS011;34730;50.894;6.052;2022-07-22T00:26:08;10.20;;;5.65;;
48919;SDS011;34730;50.894;6.052;2022-07-22T00:26:41;10.77;;;6.15;;
48919;SDS011;34730;50.894;6.052;2022-07-22T00:27:13;11.38;;;5.72;;
48919;SDS011;34730;50.894;6.052;2022-07-22T00:27:43;13.10;;;6.38;;
48919;SDS011;34730;50.894;6.052;2022-07-22T00:28:16;13.20;;;6.18;;
48919;SDS011;34730;50.894;6.052;2022-07-22T00:28:47;13.93;;;6.72;;
48919;SDS011;34730;50.894;6.052;2022-07-22T00:29:18;14.57;;;6.90;;
48919;SDS011;34730;50.894;6.052;2022-07-22T00:29:48;11.55;;;6.90;;
48919;SDS011;34730;50.894;6.052;2022-07-22T00:30:20;16.70;;;7.15;;
48919;SDS011;34730;50.894;6.052;2022-07-22T00:30:51;14.30;;;6.97;;
48919;SDS011;34730;50.894;6.052;2022-07-22T00:31:22;14.20;;;6.28;;
48919;SDS011;34730;50.894;6.052;2022-07-22T00:31:53;14.32;;;6.50;;
48919;SDS011;34730;50.894;6.052;2022-07-22T00:32:24;13.38;;;6.22;;
48919;SDS011;34730;50.894;6.052;2022-07-22T00:32:55;16.27;;;6.95;;
48919;SDS011;34730;50.894;6.052;2022-07-22T00:33:26;14.02;;;7.05;;
48919;SDS011;34730;50.894;6.052;2022-07-22T00:33:58;12.27;;;6.57;;
48919;SDS011;34730;50.894;6.052;2022-07-22T00:34:31;10.90;;;6.88;;
48919;SDS011;34730;50.894;6.052;2022-07-22T00:35:02;12.75;;;6.28;;
48919;SDS011;34730;50.894;6.052;2022-07-22T00:35:33;11.55;;;6.35;;
48919;SDS011;34730;50.894;6.052;2022-07-22T00:36:04;11.13;;;6.45;;
48919;SDS011;34730;50.894;6.052;2022-07-22T00:36:36;14.15;;;6.80;;
48919;SDS011;34730;50.894;6.052;2022-07-22T00:37:07;15.32;;;6.97;;
48919;SDS011;34730;50.894;6.052;2022-07-22T00:37:38;14.40;;;6.40;;
48919;SDS011;34730;50.894;6.052;2022-07-22T00:38:09;15.40;;;7.18;;
48919;SDS011;34730;50.894;6.052;2022-07-22T00:38:40;13.45;;;6.85;;
48919;SDS011;34730;50.894;6.052;2022-07-22T00:39:10;18.23;;;6.75;;
48919;SDS011;34730;50.894;6.052;2022-07-22T00:39:41;14.43;;;6.18;;
48919;SDS011;34730;50.894;6.052;2022-07-22T00:40:12;13.05;;;6.70;;
48919;SDS011;34730;50.894;6.052;2022-07-22T00:40:43;19.70;;;7.30;;
48919;SDS011;34730;50.894;6.052;2022-07-22T00:41:14;12.35;;;7.00;;
48919;SDS011;34730;50.894;6.052;2022-07-22T00:41:46;12.07;;;6.40;;
48919;SDS011;34730;50.894;6.052;2022-07-22T00:42:17;13.88;;;6.75;;
48919;SDS011;34730;50.894;6.052;2022-07-22T00:42:48;12.70;;;6.25;;
48919;SDS011;34730;50.894;6.052;2022-07-22T00:43:20;13.40;;;6.47;;
48919;SDS011;34730;50.894;6.052;2022-07-22T00:44:01;11.60;;;6.18;;
48919;SDS011;34730;50.894;6.052;2022-07-22T00:44:34;13.30;;;6.50;;
48919;SDS011;34730;50.894;6.052;2022-07-22T00:45:05;13.45;;;6.50;;
48919;SDS011;34730;50.894;6.052;2022-07-22T00:45:37;13.80;;;6.40;;
48919;SDS011;34730;50.894;6.052;2022-07-22T00:46:09;10.63;;;6.35;;
48919;SDS011;34730;50.894;6.052;2022-07-22T00:46:40;13.65;;;6.25;;
48919;SDS011;34730;50.894;6.052;2022-07-22T00:47:11;12.25;;;5.90;;
48919;SDS011;34730;50.894;6.052;2022-07-22T00:47:42;14.35;;;6.03;;
48919;SDS011;34730;50.894;6.052;2022-07-22T00:48:15;12.02;;;5.72;;
48919;SDS011;34730;50.894;6.052;2022-07-22T00:48:46;11.10;;;5.80;;
48919;SDS011;34730;50.894;6.052;2022-07-22T00:49:17;10.88;;;5.70;;
48919;SDS011;34730;50.894;6.052;2022-07-22T00:49:47;11.30;;;5.45;;
48919;SDS011;34730;50.894;6.052;2022-07-22T00:50:18;11.75;;;6.07;;
48919;SDS011;34730;50.894;6.052;2022-07-22T00:50:51;14.65;;;6.28;;
48919;SDS011;34730;50.894;6.052;2022-07-22T00:51:22;10.30;;;5.97;;
48919;SDS011;34730;50.894;6.052;2022-07-22T00:51:55;14.80;;;6.25;;
48919;SDS011;34730;50.894;6.052;2022-07-22T00:52:26;13.48;;;6.15;;
48919;SDS011;34730;50.894;6.052;2022-07-22T00:52:58;12.38;;;5.40;;
48919;SDS011;34730;50.894;6.052;2022-07-22T00:53:28;12.15;;;6.10;;
48919;SDS011;34730;50.894;6.052;2022-07-22T00:54:00;11.85;;;5.80;;
48919;SDS011;34730;50.894;6.052;2022-07-22T00:54:31;10.95;;;5.95;;
48919;SDS011;34730;50.894;6.052;2022-07-22T00:55:05;12.23;;;5.50;;
48919;SDS011;34730;50.894;6.052;2022-07-22T00:55:36;14.23;;;5.57;;
48919;SDS011;34730;50.894;6.052;2022-07-22T00:56:07;11.25;;;5.80;;
48919;SDS011;34730;50.894;6.052;2022-07-22T00:56:39;13.05;;;5.93;;
48919;SDS011;34730;50.894;6.052;2022-07-22T00:57:10;10.77;;;6.07;;
48919;SDS011;34730;50.894;6.052;2022-07-22T00:57:41;11.05;;;5.20;;
48919;SDS011;34730;50.894;6.052;2022-07-22T00:58:13;13.57;;;5.90;;
48919;SDS011;34730;50.894;6.052;2022-07-22T00:58:44;12.27;;;5.60;;
48919;SDS011;34730;50.894;6.052;2022-07-22T00:59:16;14.63;;;6.07;;
48919;SDS011;34730;50.894;6.052;2022-07-22T00:59:47;11.73;;;5.90;;
48919;SDS011;34730;50.894;6.052;2022-07-22T01:00:20;13.10;;;6.05;;
48919;SDS011;34730;50.894;6.052;2022-07-22T01:00:55;9.88;;;5.32;;
48919;SDS011;34730;50.894;6.052;2022-07-22T01:01:26;10.77;;;5.53;;
48919;SDS011;34730;50.894;6.052;2022-07-22T01:01:57;12.38;;;5.18;;
48919;SDS011;34730;50.894;6.052;2022-07-22T01:02:28;12.68;;;6.00;;
48919;SDS011;34730;50.894;6.052;2022-07-22T01:03:00;19.55;;;7.22;;
48919;SDS011;34730;50.894;6.052;2022-07-22T01:03:30;13.90;;;6.00;;
48919;SDS011;34730;50.894;6.052;2022-07-22T01:04:01;16.17;;;6.25;;
48919;SDS011;34730;50.894;6.052;2022-07-22T01:04:32;13.95;;;6.38;;
48919;SDS011;34730;50.894;6.052;2022-07-22T01:05:04;11.65;;;5.80;;
48919;SDS011;34730;50.894;6.052;2022-07-22T01:05:36;13.43;;;6.57;;
48919;SDS011;34730;50.894;6.052;2022-07-22T01:06:06;11.43;;;5.85;;
48919;SDS011;34730;50.894;6.052;2022-07-22T01:06:38;12.07;;;5.60;;
48919;SDS011;34730;50.894;6.052;2022-07-22T01:07:09;14.23;;;6.38;;
48919;SDS011;34730;50.894;6.052;2022-07-22T01:07:40;11.25;;;5.57;;
48919;SDS011;34730;50.894;6.052;2022-07-22T01:08:11;12.52;;;6.25;;
48919;SDS011;34730;50.894;6.052;2022-07-22T01:08:43;12.95;;;6.32;;
48919;SDS011;34730;50.894;6.052;2022-07-22T01:09:16;11.05;;;5.68;;
48919;SDS011;34730;50.894;6.052;2022-07-22T01:09:49;12.48;;;5.70;;
48919;SDS011;34730;50.894;6.052;2022-07-22T01:10:20;12.27;;;6.03;;
48919;SDS011;34730;50.894;6.052;2022-07-22T01:10:51;11.27;;;5.45;;
48919;SDS011;34730;50.894;6.052;2022-07-22T01:11:22;12.23;;;5.90;;
48919;SDS011;34730;50.894;6.052;2022-07-22T01:11:53;14.77;;;6.38;;
48919;SDS011;34730;50.894;6.052;2022-07-22T01:12:24;12.98;;;6.05;;
48919;SDS011;34730;50.894;6.052;2022-07-22T01:12:55;16.13;;;6.50;;
48919;SDS011;34730;50.894;6.052;2022-07-22T01:13:27;13.63;;;6.45;;
48919;SDS011;34730;50.894;6.052;2022-07-22T01:13:57;14.00;;;6.30;;
48919;SDS011;34730;50.894;6.052;2022-07-22T01:14:28;11.75;;;6.28;;
48919;SDS011;34730;50.894;6.052;2022-07-22T01:14:59;11.02;;;5.53;;
48919;SDS011;34730;50.894;6.052;2022-07-22T01:15:30;13.57;;;6.60;;
48919;SDS011;34730;50.894;6.052;2022-07-22T01:16:00;11.55;;;5.78;;
48919;SDS011;34730;50.894;6.052;2022-07-22T01:16:32;14.20;;;6.03;;
48919;SDS011;34730;50.894;6.052;2022-07-22T01:17:03;15.15;;;6.20;;
48919;SDS011;34730;50.894;6.052;2022-07-22T01:17:35;13.90;;;6.35;;
48919;SDS011;34730;50.894;6.052;2022-07-22T01:18:07;11.48;;;5.75;;
48919;SDS011;34730;50.894;6.052;2022-07-22T01:18:38;11.77;;;5.60;;
48919;SDS011;34730;50.894;6.052;2022-07-22T01:19:09;10.73;;;5.82;;
48919;SDS011;34730;50.894;6.052;2022-07-22T01:19:40;12.27;;;6.10;;
48919;SDS011;34730;50.894;6.052;2022-07-22T01:20:11;11.07;;;5.68;;
48919;SDS011;34730;50.894;6.052;2022-07-22T01:20:45;10.23;;;5.70;;
48919;SDS011;34730;50.894;6.052;2022-07-22T01:21:16;11.13;;;5.68;;
48919;SDS011;34730;50.894;6.052;2022-07-22T01:21:48;13.15;;;5.85;;
48919;SDS011;34730;50.894;6.052;2022-07-22T01:22:18;10.27;;;5.90;;
48919;SDS011;34730;50.894;6.052;2022-07-22T01:22:49;11.50;;;5.68;;
48919;SDS011;34730;50.894;6.052;2022-07-22T01:23:21;17.35;;;6.28;;
48919;SDS011;34730;50.894;6.052;2022-07-22T01:23:52;13.23;;;5.68;;
48919;SDS011;34730;50.894;6.052;2022-07-22T01:24:26;10.43;;;5.70;;
48919;SDS011;34730;50.894;6.052;2022-07-22T01:24:57;16.65;;;6.13;;
48919;SDS011;34730;50.894;6.052;2022-07-22T01:25:28;11.15;;;6.03;;
48919;SDS011;34730;50.894;6.052;2022-07-22T01:25:59;10.45;;;5.55;;
48919;SDS011;34730;50.894;6.052;2022-07-22T01:26:30;12.52;;;6.38;;
48919;SDS011;34730;50.894;6.052;2022-07-22T01:27:03;11.15;;;5.78;;
48919;SDS011;34730;50.894;6.052;2022-07-22T01:27:34;11.52;;;5.75;;
48919;SDS011;34730;50.894;6.052;2022-07-22T01:28:09;11.82;;;5.45;;
48919;SDS011;34730;50.894;6.052;2022-07-22T01:28:41;13.20;;;5.82;;
48919;SDS011;34730;50.894;6.052;2022-07-22T01:29:12;9.60;;;5.85;;
48919;SDS011;34730;50.894;6.052;2022-07-22T01:29:43;12.68;;;5.93;;
48919;SDS011;34730;50.894;6.052;2022-07-22T01:30:14;12.52;;;5.90;;
48919;SDS011;34730;50.894;6.052;2022-07-22T01:30:45;10.77;;;5.50;;
48919;SDS011;34730;50.894;6.052;2022-07-22T01:31:16;8.68;;;5.03;;
48919;SDS011;34730;50.894;6.052;2022-07-22T01:31:47;11.20;;;5.40;;
48919;SDS011;34730;50.894;6.052;2022-07-22T01:32:17;9.48;;;5.15;;
48919;SDS011;34730;50.894;6.052;2022-07-22T01:32:51;13.18;;;5.60;;
48919;SDS011;34730;50.894;6.052;2022-07-22T01:33:22;9.55;;;5.90;;
48919;SDS011;34730;50.894;6.052;2022-07-22T01:33:53;12.95;;;5.80;;
48919;SDS011;34730;50.894;6.052;2022-07-22T01:34:25;13.63;;;6.35;;
48919;SDS011;34730;50.894;6.052;2022-07-22T01:34:59;9.70;;;5.82;;
48919;SDS011;34730;50.894;6.052;2022-07-22T01:35:30;12.35;;;5.60;;
48919;SDS011;34730;50.894;6.052;2022-07-22T01:36:01;15.45;;;6.35;;
48919;SDS011;34730;50.894;6.052;2022-07-22T01:36:32;10.80;;;5.18;;
48919;SDS011;34730;50.894;6.052;2022-07-22T01:37:03;11.65;;;6.03;;
48919;SDS011;34730;50.894;6.052;2022-07-22T01:37:34;11.50;;;5.90;;
48919;SDS011;34730;50.894;6.052;2022-07-22T01:38:06;11.93;;;6.07;;
48919;SDS011;34730;50.894;6.052;2022-07-22T01:38:37;12.98;;;6.25;;
48919;SDS011;34730;50.894;6.052;2022-07-22T01:39:08;15.48;;;6.50;;
48919;SDS011;34730;50.894;6.052;2022-07-22T01:39:44;12.63;;;5.82;;
48919;SDS011;34730;50.894;6.052;2022-07-22T01:40:15;8.77;;;4.93;;
48919;SDS011;34730;50.894;6.052;2022-07-22T01:40:46;12.02;;;5.95;;
48919;SDS011;34730;50.894;6.052;2022-07-22T01:41:18;10.05;;;5.43;;
48919;SDS011;34730;50.894;6.052;2022-07-22T01:41:49;11.82;;;5.65;;
48919;SDS011;34730;50.894;6.052;2022-07-22T01:42:20;11.60;;;5.57;;
48919;SDS011;34730;50.894;6.052;2022-07-22T01:42:53;8.23;;;5.20;;
48919;SDS011;34730;50.894;6.052;2022-07-22T01:43:23;10.52;;;5.50;;
48919;SDS011;34730;50.894;6.052;2022-07-22T01:43:55;10.02;;;5.32;;
48919;SDS011;34730;50.894;6.052;2022-07-22T01:44:26;8.48;;;5.60;;
48919;SDS011;34730;50.894;6.052;2022-07-22T01:44:56;9.38;;;5.07;;
48919;SDS011;34730;50.894;6.052;2022-07-22T01:45:27;11.23;;;5.03;;
48919;SDS011;34730;50.894;6.052;2022-07-22T01:46:00;12.38;;;6.13;;
48919;SDS011;34730;50.894;6.052;2022-07-22T01:46:32;10.82;;;5.50;;
48919;SDS011;34730;50.894;6.052;2022-07-22T01:47:03;11.48;;;5.22;;
48919;SDS011;34730;50.894;6.052;2022-07-22T01:47:34;11.55;;;5.28;;
48919;SDS011;34730;50.894;6.052;2022-07-22T01:48:05;11.05;;;5.72;;
48919;SDS011;34730;50.894;6.052;2022-07-22T01:48:36;7.70;;;5.05;;
48919;SDS011;34730;50.894;6.052;2022-07-22T01:49:08;9.10;;;4.93;;
48919;SDS011;34730;50.894;6.052;2022-07-22T01:49:42;9.38;;;5.57;;
48919;SDS011;34730;50.894;6.052;2022-07-22T01:50:13;8.80;;;4.80;;
48919;SDS011;34730;50.894;6.052;2022-07-22T01:50:44;11.27;;;5.70;;
48919;SDS011;34730;50.894;6.052;2022-07-22T01:51:15;10.30;;;5.18;;
48919;SDS011;34730;50.894;6.052;2022-07-22T01:51:46;11.48;;;5.45;;
48919;SDS011;34730;50.894;6.052;2022-07-22T01:52:17;12.00;;;6.20;;
48919;SDS011;34730;50.894;6.052;2022-07-22T01:52:48;11.23;;;5.40;;
48919;SDS011;34730;50.894;6.052;2022-07-22T01:53:19;11.40;;;5.63;;
48919;SDS011;34730;50.894;6.052;2022-07-22T01:53:51;12.60;;;5.57;;
48919;SDS011;34730;50.894;6.052;2022-07-22T01:54:22;12.20;;;5.85;;
48919;SDS011;34730;50.894;6.052;2022-07-22T01:54:53;11.55;;;5.72;;
48919;SDS011;34730;50.894;6.052;2022-07-22T01:55:26;11.60;;;5.22;;
48919;SDS011;34730;50.894;6.052;2022-07-22T01:55:57;12.45;;;5.90;;
48919;SDS011;34730;50.894;6.052;2022-07-22T01:56:28;14.23;;;6.38;;
48919;SDS011;34730;50.894;6.052;2022-07-22T01:56:59;10.90;;;5.05;;
48919;SDS011;34730;50.894;6.052;2022-07-22T01:57:30;10.63;;;5.57;;
48919;SDS011;34730;50.894;6.052;2022-07-22T01:58:05;13.32;;;6.25;;
48919;SDS011;34730;50.894;6.052;2022-07-22T01:58:40;13.30;;;5.53;;
48919;SDS011;34730;50.894;6.052;2022-07-22T01:59:12;13.00;;;5.80;;
48919;SDS011;34730;50.894;6.052;2022-07-22T01:59:44;10.48;;;5.72;;
48919;SDS011;34730;50.894;6.052;2022-07-22T02:00:15;8.57;;;5.05;;
48919;SDS011;34730;50.894;6.052;2022-07-22T02:00:48;8.18;;;4.80;;
48919;SDS011;34730;50.894;6.052;2022-07-22T02:01:19;10.63;;;5.38;;
48919;SDS011;34730;50.894;6.052;2022-07-22T02:01:54;10.70;;;5.07;;
48919;SDS011;34730;50.894;6.052;2022-07-22T02:02:27;11.25;;;5.63;;
48919;SDS011;34730;50.894;6.052;2022-07-22T02:03:01;10.07;;;5.40;;
48919;SDS011;34730;50.894;6.052;2022-07-22T02:03:32;12.13;;;5.60;;
48919;SDS011;34730;50.894;6.052;2022-07-22T02:04:04;11.50;;;5.90;;
48919;SDS011;34730;50.894;6.052;2022-07-22T02:04:38;13.88;;;5.68;;
48919;SDS011;34730;50.894;6.052;2022-07-22T02:05:12;9.48;;;5.30;;
48919;SDS011;34730;50.894;6.052;2022-07-22T02:05:43;10.70;;;5.40;;
48919;SDS011;34730;50.894;6.052;2022-07-22T02:06:23;10.82;;;5.55;;
48919;SDS011;34730;50.894;6.052;2022-07-22T02:06:58;11.35;;;4.90;;
48919;SDS011;34730;50.894;6.052;2022-07-22T02:07:29;11.65;;;5.78;;
48919;SDS011;34730;50.894;6.052;2022-07-22T02:08:03;11.10;;;5.45;;
48919;SDS011;34730;50.894;6.052;2022-07-22T02:08:54;11.88;;;5.57;;
48919;SDS011;34730;50.894;6.052;2022-07-22T02:09:35;13.32;;;5.72;;
48919;SDS011;34730;50.894;6.052;2022-07-22T02:10:06;11.77;;;5.65;;
48919;SDS011;34730;50.894;6.052;2022-07-22T02:10:38;10.40;;;5.38;;
48919;SDS011;34730;50.894;6.052;2022-07-22T02:11:10;8.85;;;5.15;;
48919;SDS011;34730;50.894;6.052;2022-07-22T02:11:53;11.27;;;5.32;;
48919;SDS011;34730;50.894;6.052;2022-07-22T02:13:07;12.82;;;6.07;;
48919;SDS011;34730;50.894;6.052;2022-07-22T02:13:38;11.63;;;5.18;;
48919;SDS011;34730;50.894;6.052;2022-07-22T02:14:09;12.23;;;5.65;;
48919;SDS011;34730;50.894;6.052;2022-07-22T02:14:42;13.35;;;5.43;;
48919;SDS011;34730;50.894;6.052;2022-07-22T02:15:12;9.90;;;5.47;;
48919;SDS011;34730;50.894;6.052;2022-07-22T02:15:49;11.30;;;5.72;;
48919;SDS011;34730;50.894;6.052;2022-07-22T02:16:20;13.77;;;6.28;;
48919;SDS011;34730;50.894;6.052;2022-07-22T02:16:53;13.02;;;5.85;;
48919;SDS011;34730;50.894;6.052;2022-07-22T02:17:27;12.18;;;5.90;;
48919;SDS011;34730;50.894;6.052;2022-07-22T02:17:58;9.02;;;5.65;;
48919;SDS011;34730;50.894;6.052;2022-07-22T02:18:30;12.55;;;5.43;;
48919;SDS011;34730;50.894;6.052;2022-07-22T02:19:01;11.18;;;5.78;;
48919;SDS011;34730;50.894;6.052;2022-07-22T02:19:32;10.68;;;5.50;;
48919;SDS011;34730;50.894;6.052;2022-07-22T02:20:03;10.20;;;5.28;;
48919;SDS011;34730;50.894;6.052;2022-07-22T02:20:37;9.45;;;5.10;;
48919;SDS011;34730;50.894;6.052;2022-07-22T02:21:08;9.23;;;5.50;;
48919;SDS011;34730;50.894;6.052;2022-07-22T02:21:39;10.95;;;5.95;;
48919;SDS011;34730;50.894;6.052;2022-07-22T02:22:10;10.20;;;5.38;;
48919;SDS011;34730;50.894;6.052;2022-07-22T02:22:41;10.13;;;5.40;;
48919;SDS011;34730;50.894;6.052;2022-07-22T02:23:17;8.57;;;5.05;;
48919;SDS011;34730;50.894;6.052;2022-07-22T02:23:48;10.38;;;5.68;;
48919;SDS011;34730;50.894;6.052;2022-07-22T02:24:19;8.18;;;5.18;;
48919;SDS011;34730;50.894;6.052;2022-07-22T02:24:50;10.88;;;5.57;;
48919;SDS011;34730;50.894;6.052;2022-07-22T02:25:21;10.13;;;5.45;;
48919;SDS011;34730;50.894;6.052;2022-07-22T02:25:51;10.40;;;5.88;;
48919;SDS011;34730;50.894;6.052;2022-07-22T02:26:22;9.93;;;5.50;;
48919;SDS011;34730;50.894;6.052;2022-07-22T02:26:55;9.40;;;5.10;;
48919;SDS011;34730;50.894;6.052;2022-07-22T02:27:26;11.93;;;5.53;;
48919;SDS011;34730;50.894;6.052;2022-07-22T02:27:57;12.85;;;6.70;;
48919;SDS011;34730;50.894;6.052;2022-07-22T02:28:28;8.60;;;5.22;;
48919;SDS011;34730;50.894;6.052;2022-07-22T02:28:59;10.15;;;5.22;;
48919;SDS011;34730;50.894;6.052;2022-07-22T02:29:31;10.95;;;5.63;;
48919;SDS011;34730;50.894;6.052;2022-07-22T02:30:04;9.10;;;5.28;;
48919;SDS011;34730;50.894;6.052;2022-07-22T02:30:36;11.52;;;5.88;;
48919;SDS011;34730;50.894;6.052;2022-07-22T02:31:08;9.57;;;5.13;;
48919;SDS011;34730;50.894;6.052;2022-07-22T02:31:38;10.45;;;5.65;;
48919;SDS011;34730;50.894;6.052;2022-07-22T02:32:11;10.98;;;5.68;;
48919;SDS011;34730;50.894;6.052;2022-07-22T02:32:42;11.90;;;6.05;;
48919;SDS011;34730;50.894;6.052;2022-07-22T02:33:13;11.73;;;6.05;;
48919;SDS011;34730;50.894;6.052;2022-07-22T02:33:47;11.27;;;5.43;;
48919;SDS011;34730;50.894;6.052;2022-07-22T02:34:17;9.80;;;5.25;;
48919;SDS011;34730;50.894;6.052;2022-07-22T02:34:49;9.10;;;5.38;;
48919;SDS011;34730;50.894;6.052;2022-07-22T02:35:19;10.10;;;5.30;;
48919;SDS011;34730;50.894;6.052;2022-07-22T02:35:50;8.23;;;4.72;;
48919;SDS011;34730;50.894;6.052;2022-07-22T02:36:23;11.93;;;5.63;;
48919;SDS011;34730;50.894;6.052;2022-07-22T02:36:54;11.30;;;5.50;;
48919;SDS011;34730;50.894;6.052;2022-07-22T02:37:25;10.93;;;5.10;;
48919;SDS011;34730;50.894;6.052;2022-07-22T02:37:56;10.68;;;5.18;;
48919;SDS011;34730;50.894;6.052;2022-07-22T02:38:28;10.20;;;5.40;;
48919;SDS011;34730;50.894;6.052;2022-07-22T02:39:02;11.00;;;5.63;;
48919;SDS011;34730;50.894;6.052;2022-07-22T02:39:35;9.27;;;5.40;;
48919;SDS011;34730;50.894;6.052;2022-07-22T02:40:05;11.15;;;5.38;;
48919;SDS011;34730;50.894;6.052;2022-07-22T02:40:38;9.85;;;5.50;;
48919;SDS011;34730;50.894;6.052;2022-07-22T02:41:15;9.52;;;5.28;;
48919;SDS011;34730;50.894;6.052;2022-07-22T02:41:52;8.57;;;5.05;;
48919;SDS011;34730;50.894;6.052;2022-07-22T02:42:23;7.10;;;4.78;;
48919;SDS011;34730;50.894;6.052;2022-07-22T02:42:55;10.93;;;5.18;;
48919;SDS011;34730;50.894;6.052;2022-07-22T02:43:27;8.00;;;5.13;;
48919;SDS011;34730;50.894;6.052;2022-07-22T02:43:58;9.90;;;5.40;;
48919;SDS011;34730;50.894;6.052;2022-07-22T02:44:29;9.80;;;5.05;;
48919;SDS011;34730;50.894;6.052;2022-07-22T02:45:02;8.65;;;4.93;;
48919;SDS011;34730;50.894;6.052;2022-07-22T02:45:33;8.30;;;4.88;;
48919;SDS011;34730;50.894;6.052;2022-07-22T02:46:05;9.73;;;5.25;;
48919;SDS011;34730;50.894;6.052;2022-07-22T02:46:35;10.18;;;5.43;;
48919;SDS011;34730;50.894;6.052;2022-07-22T02:47:20;8.45;;;4.90;;
48919;SDS011;34730;50.894;6.052;2022-07-22T02:47:52;8.30;;;4.82;;
48919;SDS011;34730;50.894;6.052;2022-07-22T02:48:24;7.95;;;4.85;;
48919;SDS011;34730;50.894;6.052;2022-07-22T02:48:56;7.43;;;4.43;;
48919;SDS011;34730;50.894;6.052;2022-07-22T02:49:27;9.90;;;4.88;;
48919;SDS011;34730;50.894;6.052;2022-07-22T02:49:59;8.23;;;5.50;;
48919;SDS011;34730;50.894;6.052;2022-07-22T02:50:31;9.68;;;5.28;;
48919;SDS011;34730;50.894;6.052;2022-07-22T02:51:03;9.63;;;4.88;;
48919;SDS011;34730;50.894;6.052;2022-07-22T02:51:34;9.18;;;5.47;;
48919;SDS011;34730;50.894;6.052;2022-07-22T02:52:04;10.82;;;5.80;;
48919;SDS011;34730;50.894;6.052;2022-07-22T02:52:35;8.90;;;5.22;;
48919;SDS011;34730;50.894;6.052;2022-07-22T02:53:06;8.25;;;5.72;;
48919;SDS011;34730;50.894;6.052;2022-07-22T02:53:41;10.60;;;5.25;;
48919;SDS011;34730;50.894;6.052;2022-07-22T02:54:12;12.07;;;6.15;;
48919;SDS011;34730;50.894;6.052;2022-07-22T02:54:43;11.30;;;5.97;;
48919;SDS011;34730;50.894;6.052;2022-07-22T02:55:14;10.07;;;6.10;;
48919;SDS011;34730;50.894;6.052;2022-07-22T02:55:46;11.18;;;6.25;;
48919;SDS011;34730;50.894;6.052;2022-07-22T02:56:17;10.15;;;6.03;;
48919;SDS011;34730;50.894;6.052;2022-07-22T02:56:49;10.30;;;5.78;;
48919;SDS011;34730;50.894;6.052;2022-07-22T02:57:20;11.25;;;6.22;;
48919;SDS011;34730;50.894;6.052;2022-07-22T02:57:55;8.00;;;5.22;;
48919;SDS011;34730;50.894;6.052;2022-07-22T02:58:26;9.48;;;6.00;;
48919;SDS011;34730;50.894;6.052;2022-07-22T02:58:58;11.68;;;5.68;;
48919;SDS011;34730;50.894;6.052;2022-07-22T02:59:29;9.18;;;5.65;;
48919;SDS011;34730;50.894;6.052;2022-07-22T03:00:00;10.82;;;6.00;;
48919;SDS011;34730;50.894;6.052;2022-07-22T03:00:32;7.90;;;5.38;;
48919;SDS011;34730;50.894;6.052;2022-07-22T03:01:03;10.23;;;6.22;;
48919;SDS011;34730;50.894;6.052;2022-07-22T03:01:40;10.07;;;6.22;;
48919;SDS011;34730;50.894;6.052;2022-07-22T03:02:11;10.23;;;5.88;;
48919;SDS011;34730;50.894;6.052;2022-07-22T03:02:42;10.95;;;5.80;;
48919;SDS011;34730;50.894;6.052;2022-07-22T03:03:13;9.00;;;5.68;;
48919;SDS011;34730;50.894;6.052;2022-07-22T03:03:45;11.55;;;6.40;;
48919;SDS011;34730;50.894;6.052;2022-07-22T03:04:18;10.18;;;6.35;;
48919;SDS011;34730;50.894;6.052;2022-07-22T03:04:49;10.93;;;6.68;;
48919;SDS011;34730;50.894;6.052;2022-07-22T03:05:19;9.02;;;6.25;;
48919;SDS011;34730;50.894;6.052;2022-07-22T03:05:56;11.02;;;6.38;;
48919;SDS011;34730;50.894;6.052;2022-07-22T03:06:41;10.77;;;6.70;;
48919;SDS011;34730;50.894;6.052;2022-07-22T03:07:19;11.35;;;6.35;;
48919;SDS011;34730;50.894;6.052;2022-07-22T03:07:50;8.88;;;6.20;;
48919;SDS011;34730;50.894;6.052;2022-07-22T03:08:21;11.88;;;6.22;;
48919;SDS011;34730;50.894;6.052;2022-07-22T03:08:52;12.32;;;6.47;;
48919;SDS011;34730;50.894;6.052;2022-07-22T03:09:23;9.63;;;6.90;;
48919;SDS011;34730;50.894;6.052;2022-07-22T03:09:54;11.10;;;7.07;;
48919;SDS011;34730;50.894;6.052;2022-07-22T03:10:25;10.27;;;6.90;;